createdAt,value
2023-04-30T07:52:24.413Z,490.17
2023-04-30T07:54:26.646Z,44.75
2023-04-30T07:56:48.905Z,36.03
2023-04-30T07:58:50.394Z,28.63
2023-04-30T08:00:51.927Z,29.65
2023-04-30T08:02:53.589Z,32.33
2023-04-30T08:04:55.115Z,30.92
2023-04-30T08:06:56.523Z,32.42
2023-04-30T08:09:00.699Z,29.15
2023-04-30T08:11:02.396Z,25.90
2023-04-30T08:13:04.415Z,27.77
2023-04-30T08:15:08.610Z,27.58
2023-04-30T08:17:28.577Z,31.50
2023-04-30T08:19:32.624Z,22.75
2023-04-30T08:21:34.139Z,25.50
2023-04-30T08:23:36.007Z,26.13
2023-04-30T08:25:43.566Z,26.40
2023-04-30T08:27:45.072Z,28.90
2023-04-30T08:29:46.657Z,21.30
2023-04-30T08:31:48.270Z,24.63
2023-04-30T08:33:49.770Z,22.23
2023-04-30T08:35:54.484Z,22.00
2023-04-30T08:37:58.779Z,18.05
2023-04-30T08:40:04.307Z,17.23
2023-04-30T08:42:31.292Z,18.67
2023-04-30T08:44:51.625Z,23.25
2023-04-30T08:46:53.990Z,21.08
2023-04-30T08:48:58.145Z,16.73
2023-04-30T08:51:01.254Z,23.63
2023-04-30T08:53:06.082Z,19.55
2023-04-30T08:55:11.309Z,19.65
2023-04-30T08:57:31.267Z,21.02
2023-04-30T08:59:32.841Z,20.13
2023-04-30T09:01:37.108Z,18.77
2023-04-30T09:03:39.366Z,18.25
2023-04-30T09:05:43.918Z,20.30
2023-04-30T09:09:54.781Z,19.13
2023-04-30T09:12:18.638Z,19.13
2023-04-30T09:14:24.892Z,16.52
2023-04-30T09:16:27.546Z,18.48
2023-04-30T09:18:30.010Z,22.02
2023-04-30T09:20:31.634Z,15.38
2023-04-30T09:22:36.972Z,16.50
2023-04-30T09:24:49.191Z,15.73
2023-04-30T09:26:53.790Z,16.67
2023-04-30T09:28:57.158Z,16.40
2023-04-30T09:31:21.717Z,17.90
2023-04-30T09:33:25.990Z,19.50
2023-04-30T09:35:30.998Z,13.98
2023-04-30T09:37:39.845Z,14.30
2023-04-30T09:39:48.617Z,15.98
2023-04-30T09:41:54.877Z,16.10
2023-04-30T09:43:57.943Z,15.77
2023-04-30T09:45:59.934Z,17.08
2023-04-30T09:48:25.561Z,15.57
2023-04-30T09:50:38.095Z,14.00
2023-04-30T09:52:40.180Z,14.55
2023-04-30T09:54:45.336Z,17.92
2023-04-30T09:56:49.805Z,14.60
2023-04-30T09:58:57.167Z,15.65
2023-04-30T10:00:59.722Z,19.45
2023-04-30T10:03:08.626Z,15.60
2023-04-30T10:05:11.738Z,12.90
2023-04-30T10:07:21.582Z,11.63
2023-04-30T10:09:28.087Z,15.32
2023-04-30T10:11:34.832Z,15.30
2023-04-30T10:13:56.987Z,15.43
2023-04-30T10:16:04.566Z,16.67
2023-04-30T10:18:09.660Z,14.77
2023-04-30T10:20:12.933Z,16.95
2023-04-30T10:22:14.596Z,15.05
2023-04-30T10:24:19.959Z,14.52
2023-04-30T10:26:26.693Z,17.20
2023-04-30T10:28:34.215Z,15.73
2023-04-30T10:30:36.260Z,16.02
2023-04-30T10:32:41.703Z,15.18
2023-04-30T10:35:01.010Z,15.27
2023-04-30T10:37:07.694Z,14.55
2023-04-30T10:39:13.847Z,16.73
2023-04-30T10:41:17.521Z,13.60
2023-04-30T10:43:23.775Z,16.02
2023-04-30T10:45:37.935Z,15.75
2023-04-30T10:49:48.346Z,16.65
2023-04-30T10:51:54.974Z,23.98
2023-04-30T10:53:56.555Z,18.95
2023-04-30T10:58:24.973Z,19.15
2023-04-30T11:00:30.097Z,25.63
2023-04-30T11:02:43.697Z,19.33
2023-04-30T11:05:06.531Z,22.13
2023-04-30T11:07:11.589Z,21.65
2023-04-30T11:09:13.082Z,25.35
2023-04-30T11:11:23.817Z,23.33
2023-04-30T11:13:26.543Z,25.45
2023-04-30T11:15:47.505Z,24.00
2023-04-30T11:17:51.970Z,22.80
2023-04-30T11:19:54.610Z,26.15
2023-04-30T11:22:15.722Z,31.48
2023-04-30T11:24:51.599Z,31.67
2023-04-30T11:27:13.053Z,24.60
2023-04-30T11:29:17.720Z,32.20
2023-04-30T11:31:22.163Z,34.33
2023-04-30T11:33:27.182Z,35.60
2023-04-30T11:35:32.226Z,30.13
2023-04-30T11:37:35.240Z,31.27
2023-04-30T11:39:39.984Z,37.35
2023-04-30T11:41:44.366Z,28.73
2023-04-30T11:43:45.817Z,38.30
2023-04-30T11:46:05.136Z,30.52
2023-04-30T11:48:06.628Z,29.35
2023-04-30T11:50:09.404Z,33.20
2023-04-30T11:52:13.760Z,31.02
2023-04-30T11:54:16.008Z,26.92
2023-04-30T11:56:25.733Z,34.28
2023-04-30T11:58:33.555Z,31.90
2023-04-30T12:00:53.670Z,25.13
2023-04-30T12:02:55.947Z,26.15
2023-04-30T12:04:58.879Z,35.05
2023-04-30T12:07:03.389Z,29.08
2023-04-30T12:09:09.218Z,27.33
2023-04-30T12:11:20.772Z,26.27
2023-04-30T12:13:22.199Z,29.13
2023-04-30T12:15:26.875Z,27.98
2023-04-30T12:17:32.808Z,26.52
2023-04-30T12:19:34.586Z,24.90
2023-04-30T12:21:36.597Z,28.52
2023-04-30T12:23:41.428Z,29.00
2023-04-30T12:25:45.841Z,25.92
2023-04-30T12:27:48.543Z,24.38
2023-04-30T12:29:50.869Z,27.98
2023-04-30T12:32:10.908Z,25.42
2023-04-30T12:34:33.710Z,25.02
2023-04-30T12:36:36.923Z,26.80
2023-04-30T12:38:44.103Z,29.25
2023-04-30T12:40:49.058Z,26.67
2023-04-30T12:42:51.647Z,25.88
2023-04-30T12:44:57.714Z,25.33
2023-04-30T12:47:01.128Z,23.40
2023-04-30T12:49:08.879Z,27.23
2023-04-30T12:53:30.021Z,27.60
2023-04-30T12:55:42.311Z,26.25
2023-04-30T12:58:09.512Z,26.27
2023-04-30T13:00:13.983Z,21.60
2023-04-30T13:02:20.328Z,23.67
2023-04-30T13:04:24.626Z,23.63
2023-04-30T13:06:31.264Z,24.58
2023-04-30T13:10:49.410Z,17.17
2023-04-30T13:12:54.965Z,21.10
2023-04-30T13:15:01.286Z,15.85
2023-04-30T13:17:10.511Z,17.38
2023-04-30T13:19:17.102Z,19.45
2023-04-30T13:21:21.538Z,15.50
2023-04-30T13:23:25.183Z,13.50
2023-04-30T13:25:29.930Z,13.95
2023-04-30T13:27:31.436Z,16.17
2023-04-30T13:29:33.128Z,13.75
2023-04-30T13:31:37.517Z,14.30
2023-04-30T13:33:42.237Z,15.18
2023-04-30T13:35:44.033Z,19.33
2023-04-30T13:38:05.785Z,13.00
2023-04-30T13:40:08.150Z,14.05
2023-04-30T13:42:09.574Z,13.50
2023-04-30T13:44:13.969Z,12.65
2023-04-30T13:46:18.719Z,16.08
2023-04-30T13:48:23.143Z,12.80
2023-04-30T13:50:27.321Z,16.35
2023-04-30T13:52:28.948Z,16.30
2023-04-30T13:54:30.350Z,11.75
2023-04-30T13:56:32.272Z,11.85
2023-04-30T13:58:33.721Z,12.50
2023-04-30T14:00:35.389Z,13.45
2023-04-30T14:02:42.600Z,11.60
2023-04-30T14:04:54.700Z,12.85
2023-04-30T14:07:03.086Z,15.57
2023-04-30T14:09:23.550Z,10.98
2023-04-30T14:11:30.843Z,11.82
2023-04-30T14:13:32.267Z,10.20
2023-04-30T14:15:34.104Z,9.43
2023-04-30T14:17:41.740Z,9.80
2023-04-30T14:19:46.211Z,9.60
2023-04-30T14:21:50.215Z,11.07
2023-04-30T14:23:57.400Z,10.02
2023-04-30T14:25:59.178Z,16.65
2023-04-30T14:28:03.333Z,10.10
2023-04-30T14:30:07.897Z,8.70
2023-04-30T14:32:15.524Z,9.63
2023-04-30T14:34:17.387Z,10.60
2023-04-30T14:36:18.824Z,9.45
2023-04-30T14:38:20.856Z,8.20
2023-04-30T14:40:22.316Z,11.43
2023-04-30T14:42:23.727Z,13.00
2023-04-30T14:44:28.188Z,9.18
2023-04-30T14:46:33.693Z,9.77
2023-04-30T14:48:36.691Z,11.30
2023-04-30T14:50:38.307Z,15.25
2023-04-30T14:52:42.369Z,11.00
2023-04-30T14:54:44.305Z,9.07
2023-04-30T14:56:49.084Z,11.18
2023-04-30T14:58:50.597Z,11.73
2023-04-30T15:00:55.029Z,11.65
2023-04-30T15:02:59.332Z,10.90
2023-04-30T15:05:07.396Z,10.20
2023-04-30T15:07:27.883Z,16.10
2023-04-30T15:09:32.103Z,9.70
2023-04-30T15:11:33.588Z,9.77
2023-04-30T15:13:35.424Z,10.05
2023-04-30T15:15:39.884Z,10.90
2023-04-30T15:17:41.513Z,12.73
2023-04-30T15:19:46.115Z,9.07
2023-04-30T15:21:49.143Z,9.30
2023-04-30T15:23:53.503Z,9.82
2023-04-30T15:25:55.277Z,10.23
2023-04-30T15:27:59.729Z,9.55
2023-04-30T15:30:01.177Z,9.13
2023-04-30T15:32:02.697Z,13.35
2023-04-30T15:34:04.125Z,11.40
2023-04-30T15:36:09.858Z,9.82
2023-04-30T15:38:14.231Z,9.75
2023-04-30T15:40:18.629Z,10.00
2023-04-30T15:42:22.647Z,9.77
2023-04-30T15:44:24.296Z,10.27
2023-04-30T15:46:26.889Z,10.57
2023-04-30T15:48:44.529Z,11.50
2023-04-30T15:50:50.622Z,8.60
2023-04-30T15:52:54.730Z,9.68
2023-04-30T15:54:58.981Z,9.45
2023-04-30T15:57:06.780Z,9.57
2023-04-30T15:59:12.551Z,11.80
2023-04-30T16:01:19.612Z,12.45
2023-04-30T16:03:24.896Z,9.85
2023-04-30T16:05:29.301Z,9.75
2023-04-30T16:07:33.165Z,8.40
2023-04-30T16:09:55.881Z,8.73
2023-04-30T16:12:02.636Z,9.95
2023-04-30T16:14:06.574Z,11.25
2023-04-30T16:16:10.198Z,10.68
2023-04-30T16:18:14.130Z,8.65
2023-04-30T16:20:21.517Z,9.18
2023-04-30T16:22:25.653Z,9.63
2023-04-30T16:24:32.445Z,10.93
2023-04-30T16:26:36.440Z,14.68
2023-04-30T16:28:40.739Z,11.15
2023-04-30T16:30:47.181Z,11.00
2023-04-30T16:32:49.408Z,9.48
2023-04-30T16:34:51.443Z,12.00
2023-04-30T16:36:52.849Z,9.07
2023-04-30T16:38:54.510Z,8.82
2023-04-30T16:40:59.453Z,8.90
2023-04-30T16:43:00.888Z,8.43
2023-04-30T16:45:05.419Z,8.32
2023-04-30T16:47:09.575Z,10.35
2023-04-30T16:49:13.991Z,8.93
2023-04-30T16:51:15.490Z,8.60
2023-04-30T16:53:17.019Z,8.93
2023-04-30T16:55:21.165Z,7.53
2023-04-30T16:57:25.904Z,8.02
2023-04-30T16:59:46.844Z,10.13
2023-04-30T17:01:51.460Z,7.03
2023-04-30T17:03:52.978Z,6.43
2023-04-30T17:05:54.572Z,5.60
2023-04-30T17:07:59.094Z,9.55
2023-04-30T17:10:19.647Z,9.00
2023-04-30T17:12:21.387Z,7.90
2023-04-30T17:14:22.975Z,6.15
2023-04-30T17:16:27.525Z,7.18
2023-04-30T17:18:32.140Z,6.53
2023-04-30T17:20:33.678Z,7.50
2023-04-30T17:22:35.608Z,6.28
2023-04-30T17:24:37.348Z,8.90
2023-04-30T17:26:38.797Z,6.45
2023-04-30T17:28:40.189Z,7.97
2023-04-30T17:32:49.122Z,5.20
2023-04-30T17:34:50.636Z,9.45
2023-04-30T17:36:52.036Z,8.45
2023-04-30T17:38:53.719Z,4.65
2023-04-30T17:40:57.987Z,6.40
2023-04-30T17:43:02.345Z,4.60
2023-04-30T17:45:07.102Z,6.38
2023-04-30T17:47:08.587Z,5.65
2023-04-30T17:49:28.659Z,5.28
2023-04-30T17:51:33.208Z,7.72
2023-04-30T17:53:37.883Z,5.95
2023-04-30T17:55:42.327Z,6.15
2023-04-30T17:57:44.239Z,8.55
2023-04-30T17:59:45.862Z,8.45
2023-04-30T18:01:47.398Z,6.55
2023-04-30T18:03:52.398Z,7.70
2023-04-30T18:05:53.921Z,5.93
2023-04-30T18:09:59.677Z,11.05
2023-04-30T18:12:01.366Z,7.78
2023-04-30T18:14:06.121Z,10.15
2023-04-30T18:16:08.237Z,8.80
2023-04-30T18:18:10.145Z,9.77
2023-04-30T18:20:14.675Z,10.30
2023-04-30T18:22:19.228Z,7.63
2023-04-30T18:24:27.851Z,10.13
2023-04-30T18:26:31.884Z,13.10
2023-04-30T18:28:52.154Z,11.00
2023-04-30T18:30:53.669Z,12.30
2023-04-30T18:32:58.151Z,11.63
2023-04-30T18:34:59.727Z,11.55
2023-04-30T18:37:04.065Z,12.50
2023-04-30T18:39:09.102Z,9.35
2023-04-30T18:41:29.302Z,12.45
2023-04-30T18:43:30.807Z,11.88
2023-04-30T18:45:35.230Z,12.02
2023-04-30T18:47:55.874Z,12.25
2023-04-30T18:50:17.926Z,10.70
2023-04-30T18:52:22.937Z,14.68
2023-04-30T18:54:27.159Z,11.00
2023-04-30T18:56:29.122Z,13.52
2023-04-30T18:58:33.692Z,18.17
2023-04-30T19:00:37.321Z,11.70
2023-04-30T19:02:43.085Z,17.13
2023-04-30T19:04:47.758Z,20.63
2023-04-30T19:06:55.638Z,17.27
2023-04-30T19:09:02.383Z,19.42
2023-04-30T19:11:09.938Z,13.63
2023-04-30T19:13:16.840Z,16.90
2023-04-30T19:15:20.800Z,17.63
2023-04-30T19:17:23.964Z,16.75
2023-04-30T19:19:26.242Z,16.77
2023-04-30T19:21:29.862Z,17.45
2023-04-30T19:23:35.681Z,18.23
2023-04-30T19:25:40.113Z,26.15
2023-04-30T19:27:41.709Z,18.30
2023-04-30T19:29:46.556Z,22.17
2023-04-30T19:31:48.231Z,21.45
2023-04-30T19:33:52.509Z,24.77
2023-04-30T19:35:57.808Z,22.20
2023-04-30T19:37:59.424Z,22.25
2023-04-30T19:40:07.248Z,24.38
2023-04-30T19:42:08.883Z,31.05
2023-04-30T19:44:13.439Z,26.27
2023-04-30T19:46:15.995Z,29.05
2023-04-30T19:48:17.857Z,28.83
2023-04-30T19:50:22.137Z,28.80
2023-04-30T19:52:23.677Z,31.02
2023-04-30T19:54:27.996Z,31.35
2023-04-30T19:56:29.737Z,26.42
2023-04-30T19:58:31.381Z,28.92
2023-04-30T20:00:36.539Z,27.63
2023-04-30T20:02:41.136Z,31.75
2023-04-30T20:04:42.672Z,30.70
2023-04-30T20:06:48.103Z,31.05
2023-04-30T20:08:52.718Z,32.95
2023-04-30T20:10:54.865Z,35.78
2023-04-30T20:12:58.845Z,38.75
2023-04-30T20:15:01.129Z,35.85
2023-04-30T20:17:06.539Z,34.72
2023-04-30T20:19:13.114Z,37.58
2023-04-30T20:21:20.423Z,35.22
2023-04-30T20:23:24.862Z,41.05
2023-04-30T20:25:29.582Z,35.63
2023-04-30T20:27:36.457Z,38.30
2023-04-30T20:31:41.660Z,43.95
2023-04-30T20:33:43.349Z,45.15
2023-04-30T20:35:48.324Z,44.78
2023-04-30T20:37:55.876Z,40.03
2023-04-30T20:39:57.590Z,44.95
2023-04-30T20:42:02.309Z,42.15
2023-04-30T20:44:06.846Z,44.95
2023-04-30T20:46:08.369Z,39.15
2023-04-30T20:48:12.763Z,43.42
2023-04-30T20:50:17.037Z,41.83
2023-04-30T20:52:21.376Z,42.75
2023-04-30T20:54:25.795Z,47.90
2023-04-30T20:58:34.702Z,43.45
2023-04-30T21:00:39.106Z,44.78
2023-04-30T21:02:40.998Z,50.33
2023-04-30T21:04:45.346Z,48.95
2023-04-30T21:06:49.575Z,48.88
2023-04-30T21:08:51.093Z,45.03
2023-04-30T21:10:55.391Z,51.67
2023-04-30T21:12:59.728Z,45.38
2023-04-30T21:15:04.487Z,49.42
2023-04-30T21:17:07.237Z,49.75
2023-04-30T21:19:08.787Z,44.83
2023-04-30T21:23:14.635Z,47.17
2023-04-30T21:25:16.192Z,44.92
2023-04-30T21:27:20.621Z,46.95
2023-04-30T21:29:22.300Z,50.35
2023-04-30T21:31:23.823Z,46.60
2023-04-30T21:33:25.401Z,46.85
2023-04-30T21:35:29.758Z,45.88
2023-04-30T21:37:33.919Z,59.35
2023-04-30T21:39:35.445Z,44.67
2023-04-30T21:43:43.948Z,48.10
2023-04-30T21:46:03.962Z,49.65
2023-04-30T21:48:05.941Z,46.58
2023-04-30T21:50:07.917Z,43.58
2023-04-30T21:52:09.379Z,49.50
2023-04-30T21:54:13.787Z,43.53
2023-04-30T21:56:20.299Z,45.55
2023-04-30T21:58:22.984Z,44.95
2023-04-30T22:00:24.425Z,49.60
2023-04-30T22:02:29.732Z,41.30
2023-04-30T22:04:36.994Z,41.53
2023-04-30T22:06:41.514Z,41.40
2023-04-30T22:08:46.227Z,42.83
2023-04-30T22:10:55.336Z,46.50
2023-04-30T22:12:58.935Z,47.78
2023-04-30T22:15:06.607Z,42.75
2023-04-30T22:17:11.604Z,48.97
2023-04-30T22:19:14.999Z,46.88
2023-04-30T22:21:19.274Z,47.17
2023-04-30T22:23:23.771Z,47.63
2023-04-30T22:27:31.199Z,41.72
2023-04-30T22:29:35.153Z,49.40
2023-04-30T22:31:38.697Z,43.25
2023-04-30T22:33:40.546Z,43.95
2023-04-30T22:35:42.642Z,53.55
2023-04-30T22:37:46.682Z,47.78
2023-04-30T22:39:50.479Z,44.65
2023-04-30T22:41:55.140Z,48.22
2023-04-30T22:43:58.679Z,50.45
2023-04-30T22:46:03.130Z,47.72
2023-04-30T22:48:10.694Z,45.80
2023-04-30T22:50:12.625Z,45.70
2023-04-30T22:52:22.236Z,40.00
2023-04-30T22:54:31.983Z,48.90
2023-04-30T22:56:41.182Z,47.47
2023-04-30T22:58:42.634Z,43.58
2023-04-30T23:00:45.811Z,51.80
2023-04-30T23:02:49.806Z,49.50
2023-04-30T23:05:12.928Z,48.75
2023-04-30T23:07:18.129Z,49.78
2023-04-30T23:09:22.614Z,45.40
2023-04-30T23:13:28.390Z,47.17
2023-04-30T23:15:29.841Z,50.28
2023-04-30T23:17:32.060Z,47.97
2023-04-30T23:19:34.077Z,55.28
2023-04-30T23:21:35.986Z,60.28
2023-04-30T23:23:40.106Z,49.63
2023-04-30T23:25:41.736Z,52.83
2023-04-30T23:27:44.060Z,51.95
2023-04-30T23:29:45.666Z,47.10
2023-04-30T23:32:05.969Z,58.20
2023-04-30T23:34:07.745Z,53.60
2023-04-30T23:36:09.215Z,52.08
2023-04-30T23:38:11.471Z,51.35
2023-04-30T23:40:13.183Z,49.00
2023-04-30T23:42:17.214Z,53.72
2023-04-30T23:46:23.325Z,56.22
2023-04-30T23:48:27.636Z,56.28
2023-04-30T23:50:29.186Z,64.18
2023-04-30T23:52:33.539Z,62.45
2023-04-30T23:54:37.815Z,71.40
2023-04-30T23:56:39.205Z,73.18
2023-04-30T23:58:44.158Z,75.70
